Time;durP1;ratioP1;P1;durP2;ratioP2;P2;SDS_P1;SDS_P2;PMS_P1;PMS_P2;Temp;Humidity;BMP_temperature;BMP_pressure;BME280_temperature;BME280_humidity;BME280_pressure;Samples;Min_cycle;Max_cycle;Signal;HPM_P1;HPM_P2
2023/01/02 00:02:15;;;;;;;7.03;4.27;;;6.20;95.30;;;;;;5045040;28;20209;-85
2023/01/02 00:04:42;;;;;;;6.47;4.45;;;6.30;95.40;;;;;;5041285;28;20228;-86
2023/01/02 00:07:08;;;;;;;5.05;4.13;;;6.30;95.40;;;;;;5039699;28;20202;-86
2023/01/02 00:09:37;;;;;;;6.03;4.60;;;6.20;95.60;;;;;;5042464;28;20249;-86
2023/01/02 00:12:04;;;;;;;6.38;4.30;;;6.10;95.30;;;;;;5046271;28;20197;-86
2023/01/02 00:14:30;;;;;;;5.65;4.00;;;6.00;95.70;;;;;;5041821;28;20209;-85
2023/01/02 00:16:57;;;;;;;3.97;3.38;;;6.00;95.80;;;;;;5043346;28;20213;-86
2023/01/02 00:19:24;;;;;;;5.33;4.00;;;6.10;95.30;;;;;;5043887;28;20576;-85
2023/01/02 00:21:51;;;;;;;5.97;3.58;;;6.10;95.30;;;;;;5043359;28;20568;-85
2023/01/02 00:24:18;;;;;;;4.43;3.22;;;6.00;95.60;;;;;;5036827;28;20221;-85
2023/01/02 00:26:46;;;;;;;4.63;3.80;;;5.90;95.80;;;;;;5039453;28;20222;-85
2023/01/02 00:29:13;;;;;;;11.85;4.50;;;5.90;96.20;;;;;;5043537;28;20205;-85
2023/01/02 00:31:40;;;;;;;6.30;4.07;;;5.80;96.50;;;;;;5046159;28;20300;-85
2023/01/02 00:34:07;;;;;;;6.47;3.90;;;5.80;96.60;;;;;;5040758;28;20210;-86
2023/01/02 00:36:33;;;;;;;4.90;3.93;;;5.80;96.70;;;;;;5040723;28;20202;-85
2023/01/02 00:39:00;;;;;;;4.95;3.72;;;5.80;96.60;;;;;;5038099;28;20226;-86
2023/01/02 00:41:27;;;;;;;8.02;4.25;;;5.90;96.60;;;;;;5041233;28;20202;-86
2023/01/02 00:43:55;;;;;;;5.30;3.72;;;6.00;96.30;;;;;;5046116;28;20685;-85
2023/01/02 00:46:22;;;;;;;5.28;4.07;;;6.00;96.00;;;;;;5038327;28;20206;-85
2023/01/02 00:48:49;;;;;;;5.23;3.30;;;6.00;96.20;;;;;;5042553;28;20194;-85
2023/01/02 00:51:16;;;;;;;4.50;3.57;;;6.10;95.80;;;;;;5042911;28;20238;-85
2023/01/02 00:53:43;;;;;;;4.95;3.83;;;6.20;95.50;;;;;;5042714;28;20680;-85
2023/01/02 00:56:10;;;;;;;5.23;3.90;;;6.40;95.40;;;;;;5043055;28;20308;-85
2023/01/02 00:58:36;;;;;;;4.60;3.40;;;6.20;95.30;;;;;;5040773;28;20221;-85
2023/01/02 01:01:05;;;;;;;5.00;3.72;;;6.20;95.30;;;;;;5036936;28;20194;-86
2023/01/02 01:03:32;;;;;;;4.80;3.40;;;6.20;95.30;;;;;;5041142;28;20598;-85
2023/01/02 01:05:59;;;;;;;5.40;3.42;;;6.10;95.30;;;;;;5044860;28;20201;-86
2023/01/02 01:08:26;;;;;;;5.03;3.50;;;6.00;95.80;;;;;;5038177;28;20221;-85
2023/01/02 01:10:53;;;;;;;6.70;3.77;;;6.00;95.90;;;;;;5041364;28;20237;-86
2023/01/02 01:13:19;;;;;;;4.97;3.10;;;5.90;96.10;;;;;;5043752;28;20241;-85
2023/01/02 01:15:46;;;;;;;5.35;3.40;;;6.00;96.00;;;;;;5039491;28;20651;-85
2023/01/02 01:18:14;;;;;;;4.15;3.30;;;6.10;95.30;;;;;;5045224;28;20226;-86
2023/01/02 01:20:41;;;;;;;4.22;3.03;;;6.00;96.10;;;;;;5042122;28;20673;-86
2023/01/02 01:23:08;;;;;;;4.77;3.50;;;6.00;96.20;;;;;;5038637;28;20214;-85
2023/01/02 01:25:37;;;;;;;5.83;3.60;;;6.00;95.40;;;;;;5044306;28;20223;-85
2023/01/02 01:28:04;;;;;;;5.20;3.40;;;5.90;95.90;;;;;;5049630;28;20208;-85
2023/01/02 01:30:31;;;;;;;4.07;3.30;;;5.90;96.10;;;;;;5042157;28;20212;-85
2023/01/02 01:32:58;;;;;;;3.50;2.90;;;5.90;96.20;;;;;;5045376;28;20227;-86
2023/01/02 01:35:26;;;;;;;4.77;3.23;;;5.90;96.30;;;;;;5046047;28;20571;-85
2023/01/02 01:37:53;;;;;;;4.43;3.50;;;5.90;96.20;;;;;;5042297;28;20207;-85
2023/01/02 01:40:20;;;;;;;5.53;3.60;;;5.90;95.90;;;;;;5041242;28;20757;-85
2023/01/02 01:42:47;;;;;;;5.53;3.37;;;5.90;96.20;;;;;;5038757;28;20202;-85
2023/01/02 01:45:15;;;;;;;4.47;3.07;;;5.90;96.00;;;;;;5042954;28;20650;-85
2023/01/02 01:47:45;;;;;;;4.63;2.97;;;5.90;96.20;;;;;;5042906;28;20206;-86
2023/01/02 01:50:16;;;;;;;3.27;2.93;;;5.90;96.50;;;;;;5045640;28;20239;-85
2023/01/02 01:52:48;;;;;;;4.13;3.10;;;6.00;96.00;;;;;;5044906;28;20212;-85
2023/01/02 01:55:19;;;;;;;4.60;3.10;;;6.10;95.60;;;;;;5044143;28;20194;-86
2023/01/02 01:57:51;;;;;;;5.77;2.83;;;6.10;95.70;;;;;;5042537;28;20206;-86
2023/01/02 02:00:18;;;;;;;4.63;3.20;;;6.00;95.30;;;;;;5047836;28;20203;-86
2023/01/02 02:02:47;;;;;;;5.07;2.97;;;5.90;95.90;;;;;;5044404;28;20223;-86
2023/01/02 02:05:18;;;;;;;4.03;3.10;;;5.80;96.30;;;;;;5041693;28;20573;-85
2023/01/02 02:07:55;;;;;;;4.23;3.17;;;5.80;96.20;;;;;;5038553;28;20199;-85
2023/01/02 02:10:21;;;;;;;4.30;3.40;;;5.70;96.50;;;;;;5042101;28;20230;-86
2023/01/02 02:12:48;;;;;;;4.20;3.20;;;5.80;96.70;;;;;;5046458;28;20205;-85
2023/01/02 02:15:20;;;;;;;4.00;3.07;;;5.80;96.10;;;;;;5040856;28;20199;-86
2023/01/02 02:18:10;;;;;;;4.63;2.90;;;5.80;96.30;;;;;;5045573;28;20570;-86
2023/01/02 02:20:45;;;;;;;5.97;2.90;;;5.80;95.90;;;;;;5043909;28;20212;-85
2023/01/02 02:23:42;;;;;;;4.00;2.83;;;5.80;95.90;;;;;;5039907;28;20241;-86
2023/01/02 02:26:27;;;;;;;6.03;2.90;;;5.80;95.90;;;;;;5041417;28;20201;-86
2023/01/02 02:29:29;;;;;;;4.20;3.17;;;5.80;95.70;;;;;;5045349;28;20209;-85
2023/01/02 02:32:04;;;;;;;5.77;2.70;;;5.60;95.80;;;;;;5035339;28;20190;-86
2023/01/02 02:34:37;;;;;;;4.70;3.07;;;5.50;96.30;;;;;;5045410;28;20197;-86
2023/01/02 02:37:16;;;;;;;4.23;2.80;;;5.60;96.30;;;;;;5043225;28;20210;-85
2023/01/02 02:40:00;;;;;;;3.60;2.80;;;5.50;96.30;;;;;;5039101;28;20226;-86
2023/01/02 02:42:40;;;;;;;3.80;2.90;;;5.40;96.70;;;;;;5043917;28;20206;-85
2023/01/02 02:45:16;;;;;;;4.53;3.03;;;5.40;96.50;;;;;;5045935;28;20210;-86
2023/01/02 02:47:49;;;;;;;4.23;2.97;;;5.30;96.80;;;;;;5040354;28;20202;-86
2023/01/02 02:50:24;;;;;;;4.50;3.20;;;5.40;96.50;;;;;;5045587;28;20202;-85
2023/01/02 02:52:58;;;;;;;5.33;3.30;;;5.40;96.30;;;;;;5036648;28;20630;-86
2023/01/02 02:55:30;;;;;;;4.30;3.17;;;5.30;96.40;;;;;;5041893;28;20194;-86
2023/01/02 02:57:58;;;;;;;4.47;3.17;;;5.20;96.80;;;;;;5042690;28;20285;-86
2023/01/02 03:00:25;;;;;;;3.33;2.80;;;5.30;96.60;;;;;;5045309;28;20203;-86
2023/01/02 03:02:53;;;;;;;4.93;3.17;;;5.30;96.30;;;;;;5047468;28;20669;-85
2023/01/02 03:05:29;;;;;;;4.90;3.37;;;5.20;96.60;;;;;;5037816;28;20203;-85
2023/01/02 03:08:01;;;;;;;4.43;3.37;;;5.10;96.80;;;;;;5046558;28;20198;-86
2023/01/02 03:10:34;;;;;;;5.13;3.60;;;5.20;96.60;;;;;;5040304;28;20714;-86
2023/01/02 03:13:11;;;;;;;6.13;3.50;;;5.20;96.40;;;;;;5047283;28;20198;-86
2023/01/02 03:15:41;;;;;;;4.83;3.50;;;5.20;96.10;;;;;;5044175;28;20213;-83
2023/01/02 03:18:19;;;;;;;6.30;3.90;;;5.10;96.40;;;;;;5045238;28;20210;-85
2023/01/02 03:20:53;;;;;;;5.43;3.73;;;4.90;97.20;;;;;;5043511;28;20202;-85
2023/01/02 03:23:25;;;;;;;6.00;3.70;;;5.10;96.70;;;;;;5046158;28;20213;-83
2023/01/02 03:25:52;;;;;;;5.13;3.50;;;5.00;96.70;;;;;;5044154;28;20202;-84
2023/01/02 03:28:22;;;;;;;6.43;3.93;;;4.90;97.20;;;;;;5041820;28;20206;-84
2023/01/02 03:30:54;;;;;;;4.73;3.70;;;4.80;97.60;;;;;;5044057;28;20214;-85
2023/01/02 03:33:27;;;;;;;5.60;3.77;;;4.70;98.10;;;;;;5047076;28;20213;-85
2023/01/02 03:35:58;;;;;;;5.57;3.53;;;4.90;98.00;;;;;;5045051;28;20201;-85
2023/01/02 03:38:28;;;;;;;5.33;3.87;;;5.10;97.30;;;;;;5039004;28;20588;-85
2023/01/02 03:41:05;;;;;;;5.67;3.57;;;5.20;96.90;;;;;;5039232;28;20203;-85
2023/01/02 03:43:34;;;;;;;4.80;3.43;;;5.30;96.50;;;;;;5044911;28;20550;-85
2023/01/02 03:46:07;;;;;;;3.73;3.03;;;5.20;96.30;;;;;;5043378;28;20210;-85
2023/01/02 03:48:41;;;;;;;4.03;3.40;;;5.10;96.30;;;;;;5044291;28;20210;-85
2023/01/02 03:51:08;;;;;;;4.87;3.27;;;5.00;96.30;;;;;;5043069;28;20217;-85
2023/01/02 03:53:36;;;;;;;7.23;3.17;;;4.90;96.60;;;;;;5043216;28;20206;-85
2023/01/02 03:56:11;;;;;;;5.10;3.37;;;4.80;96.90;;;;;;5042869;28;20564;-85
2023/01/02 03:58:45;;;;;;;3.77;3.13;;;4.80;96.80;;;;;;5038785;28;20225;-85
2023/01/02 04:01:17;;;;;;;3.43;2.73;;;4.80;96.90;;;;;;5046796;28;20209;-85
2023/01/02 04:03:49;;;;;;;4.03;2.97;;;4.80;97.00;;;;;;5037876;28;20225;-85
2023/01/02 04:06:22;;;;;;;6.47;3.00;;;4.70;97.00;;;;;;5039595;28;20202;-85
2023/01/02 04:08:55;;;;;;;4.63;2.77;;;4.70;97.00;;;;;;5041722;28;20201;-85
2023/01/02 04:11:24;;;;;;;3.90;2.83;;;4.70;97.20;;;;;;5041835;28;20226;-84
2023/01/02 04:13:55;;;;;;;4.27;2.70;;;4.60;97.40;;;;;;5042265;28;20209;-85
2023/01/02 04:16:27;;;;;;;3.67;2.90;;;4.60;97.40;;;;;;5041819;28;20198;-85
2023/01/02 04:19:01;;;;;;;3.07;2.30;;;4.70;97.30;;;;;;5042360;28;20604;-85
2023/01/02 04:21:31;;;;;;;3.93;2.60;;;4.60;97.10;;;;;;5044841;28;20564;-85
2023/01/02 04:24:04;;;;;;;5.17;3.60;;;4.60;97.20;;;;;;5042013;28;20222;-85
2023/01/02 04:26:35;;;;;;;4.97;3.23;;;4.60;97.40;;;;;;5037085;28;20194;-85
2023/01/02 04:29:02;;;;;;;3.83;2.80;;;4.50;97.60;;;;;;5034950;28;20213;-85
2023/01/02 04:31:37;;;;;;;3.00;2.50;;;4.60;97.60;;;;;;5040625;28;20588;-85
2023/01/02 04:34:09;;;;;;;4.57;2.60;;;4.60;97.60;;;;;;5038717;28;20280;-85
2023/01/02 04:36:38;;;;;;;3.20;2.43;;;4.60;97.50;;;;;;5040492;28;20201;-85
2023/01/02 04:39:05;;;;;;;3.87;2.33;;;4.60;97.40;;;;;;5046617;28;20232;-85
2023/01/02 04:41:33;;;;;;;3.80;2.63;;;4.60;97.40;;;;;;5035473;28;20698;-85
2023/01/02 04:44:00;;;;;;;3.03;2.40;;;4.60;97.30;;;;;;5038434;28;20201;-85
2023/01/02 04:46:28;;;;;;;3.27;2.60;;;4.60;97.40;;;;;;5037504;28;20646;-85
2023/01/02 04:48:56;;;;;;;5.63;2.30;;;4.60;97.20;;;;;;5046474;28;20255;-84
2023/01/02 04:51:25;;;;;;;3.27;2.50;;;4.50;97.50;;;;;;5042820;28;20194;-85
2023/01/02 04:53:52;;;;;;;3.33;2.57;;;4.50;97.40;;;;;;5044415;28;20210;-85
2023/01/02 04:56:20;;;;;;;3.73;2.50;;;4.50;97.60;;;;;;5038835;28;20210;-85
2023/01/02 04:58:47;;;;;;;2.77;2.43;;;4.50;97.60;;;;;;5040518;28;20232;-85
2023/01/02 05:01:16;;;;;;;2.90;2.40;;;4.40;97.90;;;;;;5040285;28;20214;-85
2023/01/02 05:03:45;;;;;;;3.23;2.37;;;4.40;98.00;;;;;;5044337;28;20208;-85
2023/01/02 05:06:12;;;;;;;2.87;2.20;;;4.40;98.20;;;;;;5045122;28;20206;-85
2023/01/02 05:08:40;;;;;;;2.60;2.40;;;4.50;98.20;;;;;;5043064;28;20213;-85
2023/01/02 05:11:07;;;;;;;3.27;2.33;;;4.50;98.00;;;;;;5049023;28;20232;-85
2023/01/02 05:13:34;;;;;;;3.20;2.27;;;4.50;97.70;;;;;;5047776;28;20205;-85
2023/01/02 05:16:02;;;;;;;2.90;2.23;;;4.50;97.60;;;;;;5041934;28;20569;-85
2023/01/02 05:18:29;;;;;;;3.50;2.70;;;4.50;97.80;;;;;;5040140;28;20194;-85
2023/01/02 05:21:01;;;;;;;2.57;2.23;;;4.50;98.00;;;;;;5045291;28;20225;-85
2023/01/02 05:26:14;;;;;;;2.20;1.90;;;4.60;97.90;;;;;;5044824;28;20285;-85
2023/01/02 05:28:41;;;;;;;2.33;2.00;;;4.70;97.30;;;;;;5046145;28;20206;-85
2023/01/02 05:31:08;;;;;;;2.40;1.97;;;4.80;96.90;;;;;;5044094;28;20212;-85
2023/01/02 05:33:35;;;;;;;3.43;2.30;;;5.00;96.50;;;;;;5046510;28;20205;-85
2023/01/02 05:36:04;;;;;;;2.20;1.73;;;5.00;96.30;;;;;;5048276;28;20213;-85
2023/01/02 05:38:31;;;;;;;2.53;2.10;;;5.00;96.30;;;;;;5043092;28;20198;-85
2023/01/02 05:41:02;;;;;;;2.37;1.80;;;5.00;96.30;;;;;;5040425;28;20226;-85
2023/01/02 05:43:35;;;;;;;2.13;1.93;;;4.80;96.40;;;;;;5042606;28;20282;-85
2023/01/02 05:46:07;;;;;;;2.37;1.80;;;4.70;97.00;;;;;;5045290;28;20206;-85
2023/01/02 05:48:34;;;;;;;3.57;1.70;;;4.70;97.30;;;;;;5046314;28;20654;-85
2023/01/02 05:51:01;;;;;;;2.17;1.70;;;4.70;97.10;;;;;;5043712;28;20214;-85
2023/01/02 05:53:28;;;;;;;3.00;2.03;;;4.80;96.80;;;;;;5044872;28;20198;-85
2023/01/02 05:55:55;;;;;;;2.30;1.90;;;4.80;96.60;;;;;;5043298;28;20669;-85
2023/01/02 05:58:22;;;;;;;2.03;1.70;;;4.80;96.70;;;;;;5041173;28;20202;-85
2023/01/02 06:00:50;;;;;;;2.33;1.90;;;4.70;96.60;;;;;;5044690;28;20222;-85
2023/01/02 06:03:17;;;;;;;2.57;1.87;;;4.80;96.60;;;;;;5044760;28;20659;-85
2023/01/02 06:05:44;;;;;;;2.57;1.80;;;4.70;96.40;;;;;;5047238;28;20225;-85
2023/01/02 06:08:10;;;;;;;2.37;1.93;;;4.60;96.60;;;;;;5044249;28;20222;-85
2023/01/02 06:10:37;;;;;;;2.00;1.80;;;4.50;96.90;;;;;;5045253;28;20237;-85
2023/01/02 06:13:04;;;;;;;3.17;2.10;;;4.40;97.40;;;;;;5042113;28;20198;-84
2023/01/02 06:15:31;;;;;;;3.27;1.97;;;4.30;97.70;;;;;;5044577;28;20655;-85
2023/01/02 06:17:59;;;;;;;3.80;1.93;;;4.30;98.30;;;;;;5048596;28;20198;-85
2023/01/02 06:20:26;;;;;;;3.43;2.00;;;4.30;98.20;;;;;;5039483;28;20222;-85
2023/01/02 06:22:53;;;;;;;3.70;1.80;;;4.40;98.30;;;;;;5047936;28;20220;-84
2023/01/02 06:25:19;;;;;;;3.17;2.20;;;4.60;98.40;;;;;;5041623;28;20696;-84
2023/01/02 06:27:46;;;;;;;6.63;2.60;;;4.70;98.10;;;;;;5046575;28;20197;-84
2023/01/02 06:30:13;;;;;;;3.37;2.10;;;4.70;98.00;;;;;;5041726;28;20211;-84
2023/01/02 06:32:40;;;;;;;4.50;2.13;;;4.80;98.20;;;;;;5045383;28;20198;-84
2023/01/02 06:35:09;;;;;;;2.43;2.03;;;5.00;97.10;;;;;;5045907;28;20300;-85
2023/01/02 06:37:36;;;;;;;6.00;2.60;;;5.10;96.70;;;;;;5043250;28;20198;-84
2023/01/02 06:40:05;;;;;;;3.90;2.00;;;5.10;97.10;;;;;;5044182;28;20628;-84
2023/01/02 06:42:32;;;;;;;4.60;2.30;;;5.10;96.50;;;;;;5040639;28;20206;-84
2023/01/02 06:44:59;;;;;;;4.20;2.20;;;5.20;96.40;;;;;;5046763;28;20262;-84
2023/01/02 06:47:26;;;;;;;2.40;1.90;;;5.00;96.30;;;;;;5036774;28;20199;-85
2023/01/02 06:49:53;;;;;;;2.60;1.87;;;5.10;96.30;;;;;;5044769;28;20241;-85
2023/01/02 06:52:21;;;;;;;2.37;1.97;;;5.00;96.20;;;;;;5046863;28;20617;-84
2023/01/02 06:54:48;;;;;;;2.77;2.10;;;4.80;96.60;;;;;;5043311;28;20205;-84
2023/01/02 06:57:15;;;;;;;2.70;2.10;;;4.70;97.00;;;;;;5042365;28;20205;-85
2023/01/02 06:59:42;;;;;;;3.53;2.10;;;4.90;96.90;;;;;;5039030;28;20573;-84
2023/01/02 07:02:11;;;;;;;3.60;2.10;;;4.90;96.70;;;;;;5045617;28;20203;-84
2023/01/02 07:04:38;;;;;;;3.67;2.23;;;4.90;96.40;;;;;;5042624;28;20206;-84
2023/01/02 07:07:04;;;;;;;3.00;2.10;;;4.90;96.50;;;;;;5040372;28;20202;-84
2023/01/02 07:09:33;;;;;;;2.73;2.03;;;4.80;96.90;;;;;;5043135;28;20222;-84
2023/01/02 07:11:59;;;;;;;2.10;1.80;;;4.80;96.60;;;;;;5044158;28;20675;-85
2023/01/02 07:14:29;;;;;;;4.07;1.97;;;4.70;96.60;;;;;;5046270;28;20205;-85
2023/01/02 07:16:56;;;;;;;4.20;1.73;;;4.70;96.70;;;;;;5040906;28;20745;-84
2023/01/02 07:19:29;;;;;;;2.53;1.83;;;4.70;96.70;;;;;;5051324;28;20198;-84
2023/01/02 07:21:59;;;;;;;5.10;2.10;;;4.60;97.20;;;;;;5040529;28;20199;-84
2023/01/02 07:24:26;;;;;;;2.43;2.00;;;4.70;96.90;;;;;;5046437;28;20264;-84
2023/01/02 07:26:54;;;;;;;2.93;2.10;;;4.70;96.60;;;;;;5047891;28;20296;-84
2023/01/02 07:29:21;;;;;;;7.23;2.23;;;4.60;96.80;;;;;;5040020;28;20193;-84
2023/01/02 07:31:48;;;;;;;3.70;2.50;;;4.70;96.80;;;;;;5041814;28;20226;-84
2023/01/02 07:34:15;;;;;;;4.53;2.00;;;4.70;97.10;;;;;;5037498;28;20202;-84
2023/01/02 07:36:42;;;;;;;3.83;2.63;;;4.70;96.80;;;;;;5045937;28;20556;-84
2023/01/02 07:39:09;;;;;;;3.63;2.67;;;4.60;96.90;;;;;;5045008;28;20204;-84
2023/01/02 07:41:37;;;;;;;3.90;2.53;;;4.60;97.20;;;;;;5045550;28;20225;-84
2023/01/02 07:44:06;;;;;;;5.20;2.17;;;4.50;97.40;;;;;;5042545;28;20199;-84
2023/01/02 07:46:33;;;;;;;3.00;2.40;;;4.50;97.60;;;;;;5044352;28;20206;-85
2023/01/02 07:49:00;;;;;;;5.47;2.80;;;4.50;98.00;;;;;;5042983;28;20202;-84
2023/01/02 07:51:27;;;;;;;6.43;2.63;;;4.50;98.10;;;;;;5042557;28;20228;-84
2023/01/02 07:53:54;;;;;;;5.03;2.80;;;4.70;97.50;;;;;;5047395;28;20198;-84
2023/01/02 07:56:21;;;;;;;6.40;3.03;;;4.80;97.10;;;;;;5042350;28;20199;-84
2023/01/02 07:58:47;;;;;;;7.00;3.37;;;5.00;96.70;;;;;;5042433;28;20201;-84
2023/01/02 08:01:15;;;;;;;6.90;3.07;;;5.10;96.40;;;;;;5038859;28;20237;-84
2023/01/02 08:03:45;;;;;;;6.23;3.23;;;5.00;96.50;;;;;;5041678;28;20206;-84
2023/01/02 08:06:14;;;;;;;7.70;3.50;;;5.10;96.60;;;;;;5043463;28;20198;-84
2023/01/02 08:08:41;;;;;;;6.77;3.00;;;5.20;96.20;;;;;;5043209;28;20203;-86
2023/01/02 08:11:10;;;;;;;4.37;3.03;;;5.30;96.10;;;;;;5041304;28;20333;-85
2023/01/02 08:13:36;;;;;;;4.47;2.87;;;5.40;95.60;;;;;;5049354;28;20205;-84
2023/01/02 08:16:04;;;;;;;10.13;3.20;;;5.50;95.40;;;;;;5042840;28;20197;-85
2023/01/02 08:18:33;;;;;;;7.17;3.50;;;5.50;95.20;;;;;;5042719;28;20191;-86
2023/01/02 08:21:00;;;;;;;5.37;3.37;;;5.50;95.60;;;;;;5038665;28;20221;-84
2023/01/02 08:23:27;;;;;;;6.17;3.17;;;5.50;95.90;;;;;;5034677;28;20229;-87
2023/01/02 08:25:57;;;;;;;5.17;3.80;;;5.50;96.40;;;;;;5041159;28;20205;-87
2023/01/02 08:28:24;;;;;;;8.77;3.47;;;5.60;96.20;;;;;;5044822;28;20972;-87
2023/01/02 08:30:51;;;;;;;4.15;2.90;;;5.70;96.30;;;;;;5036554;28;20199;-87
2023/01/02 08:33:18;;;;;;;4.82;3.20;;;5.90;96.50;;;;;;5049526;28;20675;-87
2023/01/02 08:35:46;;;;;;;4.25;3.10;;;6.10;96.30;;;;;;5038714;28;20220;-87
2023/01/02 08:38:13;;;;;;;9.82;3.42;;;6.30;95.80;;;;;;5042300;28;20207;-87
2023/01/02 08:40:40;;;;;;;5.07;2.83;;;6.60;94.70;;;;;;5042885;28;20228;-87
2023/01/02 08:43:08;;;;;;;6.28;3.58;;;6.80;94.60;;;;;;5042924;28;20212;-87
2023/01/02 08:45:35;;;;;;;4.65;2.95;;;7.00;93.70;;;;;;5044875;28;20206;-87
2023/01/02 08:48:02;;;;;;;5.20;3.30;;;7.30;93.60;;;;;;5037682;28;20202;-87
2023/01/02 08:50:28;;;;;;;6.10;3.22;;;7.50;93.10;;;;;;5038672;28;20193;-87
2023/01/02 08:52:57;;;;;;;5.57;3.28;;;7.90;92.00;;;;;;5034942;28;20206;-87
2023/01/02 08:55:23;;;;;;;5.65;3.17;;;8.20;91.10;;;;;;5044589;28;20198;-87
2023/01/02 08:57:50;;;;;;;5.35;3.63;;;8.30;91.50;;;;;;5039631;28;20207;-87
2023/01/02 09:00:18;;;;;;;6.25;2.90;;;9.00;91.60;;;;;;5037154;28;20225;-87
2023/01/02 09:02:44;;;;;;;4.07;3.33;;;10.00;87.90;;;;;;5037511;28;20214;-87
2023/01/02 09:05:11;;;;;;;6.47;2.97;;;11.20;74.40;;;;;;5042688;28;20217;-87
2023/01/02 09:07:38;;;;;;;4.03;2.90;;;12.00;55.90;;;;;;5038561;28;20205;-87
2023/01/02 09:10:08;;;;;;;5.82;3.17;;;12.00;54.60;;;;;;5035092;28;20694;-87
2023/01/02 09:12:35;;;;;;;16.92;4.80;;;11.80;59.70;;;;;;5046063;28;20194;-85
2023/01/02 09:15:02;;;;;;;22.48;4.75;;;12.30;54.40;;;;;;5043211;28;20608;-85
2023/01/02 09:17:29;;;;;;;8.13;3.72;;;12.80;49.30;;;;;;5042322;28;20208;-85
2023/01/02 09:19:55;;;;;;;7.95;3.50;;;13.20;47.10;;;;;;5046286;28;20753;-85
2023/01/02 09:22:22;;;;;;;7.20;3.20;;;13.70;43.30;;;;;;5046855;28;20229;-85
2023/01/02 09:24:49;;;;;;;5.45;2.90;;;14.40;37.70;;;;;;5042572;28;20567;-85
2023/01/02 09:27:17;;;;;;;6.40;2.85;;;14.80;35.50;;;;;;5038659;28;20211;-85
2023/01/02 09:29:44;;;;;;;6.38;3.03;;;15.30;30.60;;;;;;5041938;28;20226;-85
2023/01/02 09:32:11;;;;;;;7.25;3.03;;;15.20;30.30;;;;;;5044695;28;20208;-85
2023/01/02 09:34:38;;;;;;;8.40;3.30;;;15.10;33.20;;;;;;5040343;28;20202;-83
2023/01/02 09:37:04;;;;;;;5.30;2.83;;;15.80;28.50;;;;;;5036977;28;20665;-83
2023/01/02 09:39:31;;;;;;;7.20;3.00;;;16.40;28.00;;;;;;5040617;28;20225;-83
2023/01/02 09:42:03;;;;;;;7.97;3.10;;;16.60;29.00;;;;;;5033261;28;20222;-83
2023/01/02 09:44:39;;;;;;;4.85;3.10;;;17.40;27.60;;;;;;5036290;28;20199;-83
2023/01/02 09:47:12;;;;;;;7.65;2.90;;;17.80;23.70;;;;;;5046165;28;20208;-83
2023/01/02 09:49:46;;;;;;;7.03;3.30;;;17.60;24.80;;;;;;5042056;28;20209;-82
2023/01/02 09:52:18;;;;;;;5.25;3.17;;;17.60;24.60;;;;;;5048910;28;20201;-83
2023/01/02 09:54:45;;;;;;;6.22;3.08;;;17.60;24.70;;;;;;5047000;28;20202;-83
2023/01/02 09:57:30;;;;;;;10.75;3.00;;;17.70;25.00;;;;;;5042683;28;20659;-82
2023/01/02 10:00:03;;;;;;;3.90;2.90;;;17.50;23.30;;;;;;5041283;28;20202;-83
2023/01/02 10:02:42;;;;;;;9.73;3.20;;;16.60;29.20;;;;;;5040544;28;20221;-82
2023/01/02 10:05:42;;;;;;;10.38;3.03;;;16.30;29.00;;;;;;5046545;28;20193;-82
2023/01/02 10:08:13;;;;;;;8.05;3.13;;;15.90;28.60;;;;;;5043891;28;20197;-85
2023/01/02 10:10:41;;;;;;;4.85;3.05;;;15.50;28.30;;;;;;5046063;28;20605;-85
2023/01/02 10:13:17;;;;;;;6.40;2.97;;;15.20;28.00;;;;;;5045259;28;20209;-85
2023/01/02 10:15:49;;;;;;;3.58;2.90;;;15.10;28.00;;;;;;5039332;28;20198;-85
2023/01/02 10:18:22;;;;;;;3.40;2.50;;;14.80;27.70;;;;;;5045400;28;20190;-85
2023/01/02 10:20:55;;;;;;;5.15;2.70;;;14.50;27.40;;;;;;5038919;28;20740;-85
2023/01/02 10:23:26;;;;;;;5.53;2.83;;;14.60;27.50;;;;;;5048748;28;20237;-85
2023/01/02 10:25:58;;;;;;;5.85;2.80;;;14.60;29.00;;;;;;5047776;28;20206;-85
2023/01/02 10:28:34;;;;;;;3.95;2.92;;;14.80;27.70;;;;;;5041203;28;20194;-85
2023/01/02 10:31:07;;;;;;;4.63;2.75;;;15.00;27.90;;;;;;5040670;28;20205;-85
2023/01/02 10:33:44;;;;;;;7.10;2.80;;;15.00;27.80;;;;;;5043523;28;20573;-85
2023/01/02 10:36:21;;;;;;;4.65;2.83;;;15.10;26.70;;;;;;5037672;28;20198;-85
2023/01/02 10:38:48;;;;;;;4.45;2.35;;;15.10;25.50;;;;;;5048267;28;21008;-85
2023/01/02 10:41:15;;;;;;;5.50;2.63;;;15.10;25.30;;;;;;5041571;28;20223;-85
2023/01/02 10:43:41;;;;;;;3.90;2.20;;;15.50;26.20;;;;;;5046821;28;20197;-85
2023/01/02 10:46:10;;;;;;;4.85;2.70;;;15.80;23.70;;;;;;5042189;28;20293;-85
2023/01/02 10:48:38;;;;;;;4.57;2.42;;;16.00;22.40;;;;;;5039058;28;20202;-85
2023/01/02 10:51:11;;;;;;;5.47;2.50;;;16.60;22.50;;;;;;5044083;28;20202;-83
2023/01/02 10:53:38;;;;;;;9.15;2.55;;;16.70;20.30;;;;;;5041459;28;20198;-83
2023/01/02 10:56:08;;;;;;;2.38;2.17;;;16.50;20.00;;;;;;5047322;28;20206;-85
2023/01/02 10:58:35;;;;;;;5.78;2.58;;;16.40;19.90;;;;;;5044692;28;20579;-84
2023/01/02 11:01:07;;;;;;;4.55;2.38;;;16.50;20.90;;;;;;5037768;28;20230;-84
2023/01/02 11:03:35;;;;;;;5.05;2.40;;;16.60;21.60;;;;;;5040238;28;20526;-84
2023/01/02 11:06:02;;;;;;;4.80;2.60;;;16.60;21.60;;;;;;5042131;28;20586;-84
2023/01/02 11:08:36;;;;;;;3.38;2.30;;;16.50;21.50;;;;;;5040569;28;20205;-84
2023/01/02 11:11:13;;;;;;;4.40;2.50;;;16.50;21.60;;;;;;5037168;28;20267;-85
2023/01/02 11:13:46;;;;;;;3.70;2.55;;;16.60;22.80;;;;;;5036239;28;20198;-85
2023/01/02 11:16:15;;;;;;;5.18;2.40;;;16.50;22.70;;;;;;5044336;28;20281;-84
2023/01/02 11:18:51;;;;;;;7.53;2.28;;;16.50;22.30;;;;;;5039614;28;20276;-84
2023/01/02 11:21:25;;;;;;;5.82;2.40;;;16.20;21.60;;;;;;5041952;28;20241;-85
2023/01/02 11:23:59;;;;;;;5.40;2.30;;;16.10;21.40;;;;;;5039729;28;20222;-84
2023/01/02 11:26:28;;;;;;;4.07;2.10;;;16.00;21.70;;;;;;5043625;28;20205;-84
2023/01/02 11:28:57;;;;;;;3.78;2.00;;;15.90;21.60;;;;;;5043682;28;20209;-84
2023/01/02 11:31:24;;;;;;;5.32;2.10;;;15.80;21.90;;;;;;5041207;28;20210;-84
2023/01/02 11:33:54;;;;;;;2.92;2.00;;;15.70;22.00;;;;;;5040015;28;20214;-84
2023/01/02 11:36:20;;;;;;;3.53;2.17;;;15.70;22.00;;;;;;5037308;28;20204;-86
2023/01/02 11:38:49;;;;;;;6.18;2.03;;;15.60;21.20;;;;;;5042802;28;20202;-86
2023/01/02 11:43:47;;;;;;;2.67;1.92;;;15.50;21.60;;;;;;5043925;28;20222;-86
2023/01/02 11:44:15;;;;;;;4.15;2.35;;;15.40;20.90;;;;;;5039195;28;20198;-86
2023/01/02 11:46:42;;;;;;;5.95;1.90;;;15.30;22.00;;;;;;5039108;28;20206;-86
2023/01/02 11:49:14;;;;;;;5.43;2.50;;;15.00;23.80;;;;;;5044525;28;20206;-86
2023/01/02 11:51:41;;;;;;;5.50;2.10;;;14.90;23.70;;;;;;5042997;28;20206;-86
2023/01/02 11:54:14;;;;;;;3.13;1.95;;;14.80;23.10;;;;;;5040364;28;20201;-86
2023/01/02 11:56:43;;;;;;;2.28;1.95;;;14.80;23.70;;;;;;5038257;28;20202;-86
2023/01/02 11:59:15;;;;;;;3.80;2.08;;;14.70;24.00;;;;;;5040491;28;20202;-86
2023/01/02 12:01:51;;;;;;;3.22;2.10;;;14.70;24.70;;;;;;5041976;28;20232;-86
2023/01/02 12:04:19;;;;;;;2.97;2.05;;;14.70;26.00;;;;;;5045672;28;20197;-86
2023/01/02 12:07:05;;;;;;;2.75;2.10;;;14.70;25.20;;;;;;5043383;28;20209;-86
2023/01/02 12:09:44;;;;;;;3.70;1.90;;;14.70;25.80;;;;;;5040082;28;20230;-86
2023/01/02 12:12:32;;;;;;;3.40;2.10;;;14.70;25.10;;;;;;5033493;28;20203;-87
2023/01/02 12:15:17;;;;;;;3.22;2.20;;;14.80;26.30;;;;;;5038559;28;20712;-86
2023/01/02 12:17:50;;;;;;;3.63;2.28;;;14.80;25.30;;;;;;5037166;28;20197;-86
2023/01/02 12:20:30;;;;;;;5.90;2.00;;;14.70;24.50;;;;;;5042841;28;20202;-86
2023/01/02 12:23:24;;;;;;;2.67;2.10;;;14.70;25.20;;;;;;5040721;28;20237;-86
2023/01/02 12:26:01;;;;;;;2.70;2.10;;;14.70;23.50;;;;;;5045220;28;20289;-86
2023/01/02 12:28:54;;;;;;;5.05;2.50;;;14.60;23.80;;;;;;5038556;28;20198;-86
2023/01/02 12:31:35;;;;;;;2.30;2.10;;;14.60;27.50;;;;;;5038514;28;20205;-87
2023/01/02 12:34:16;;;;;;;3.28;2.33;;;14.60;25.80;;;;;;5040751;28;20665;-86
2023/01/02 12:36:55;;;;;;;2.97;2.03;;;14.60;25.00;;;;;;5035601;28;20198;-86
2023/01/02 12:39:48;;;;;;;5.60;2.42;;;14.60;25.30;;;;;;5035901;28;20205;-86
2023/01/02 12:42:30;;;;;;;4.38;2.00;;;14.70;27.00;;;;;;5033488;28;20226;-86
2023/01/02 12:44:58;;;;;;;4.55;2.22;;;14.60;26.00;;;;;;5038160;28;20650;-86
2023/01/02 12:47:39;;;;;;;2.97;2.08;;;14.70;27.60;;;;;;5038287;28;20255;-86
2023/01/02 12:50:30;;;;;;;4.80;2.47;;;14.70;23.80;;;;;;5037720;28;20235;-86
2023/01/02 12:53:12;;;;;;;3.80;2.00;;;14.80;25.80;;;;;;5044018;28;20240;-86
2023/01/02 12:55:51;;;;;;;4.05;2.00;;;14.80;26.60;;;;;;5039215;28;20230;-87
2023/01/02 12:58:30;;;;;;;3.22;2.00;;;14.80;25.50;;;;;;5046347;28;20206;-87
2023/01/02 13:01:09;;;;;;;2.95;1.75;;;14.90;27.70;;;;;;5037701;28;20209;-86
2023/01/02 13:03:51;;;;;;;3.58;1.90;;;14.80;25.10;;;;;;5043952;28;20211;-87
2023/01/02 13:06:23;;;;;;;4.63;2.00;;;14.90;28.30;;;;;;5038408;28;20202;-86
2023/01/02 13:08:58;;;;;;;5.72;1.90;;;14.80;27.10;;;;;;5040809;28;20221;-87
2023/01/02 13:11:31;;;;;;;3.58;1.85;;;14.80;24.80;;;;;;5040598;28;20208;-86
2023/01/02 13:14:02;;;;;;;3.67;1.90;;;14.80;26.10;;;;;;5038141;28;20199;-87